VOE2630 LFML-DAAE
Flight info
| Callsign | VOE2630 |
|---|---|
| Flight time | 1h 1m |
| Altitude | 39000 |
| Route | TINOT UN854 RASPA DCT LUNOR DCT DOLIS UN736 BJA |
| Aircraft | A319/M-SDFGIJ1RWY/LB1 |
Departure
| Time | 2026-04-14 14:37 |
|---|---|
| Airport | Marseille Provence Airport (LFML) |
Arrival
| Time | 2026-04-14 15:38 |
|---|---|
| Airport | Soummam–Abane Ramdane Airport (DAAE) |
| Time | Latitude | Longitude | Altitude | Speed | Heading |
|---|---|---|---|---|---|
| 2026-04-14 14:07 | 43.44059 | 5.22089 | 38 ft | 0 kts | 50° |
| 2026-04-14 14:18 | 43.44058 | 5.22089 | 38 ft | 0 kts | 50° |
| 2026-04-14 14:22 | 43.44058 | 5.22088 | 38 ft | 0 kts | 50° |
| 2026-04-14 14:28 | 43.44050 | 5.22075 | 38 ft | 3 kts | 50° |
| 2026-04-14 14:28 | 43.44038 | 5.22054 | 38 ft | 2 kts | 50° |
| 2026-04-14 14:29 | 43.44027 | 5.22034 | 36 ft | 3 kts | 66° |
| 2026-04-14 14:29 | 43.44022 | 5.22010 | 38 ft | 3 kts | 99° |
| 2026-04-14 14:29 | 43.44028 | 5.21986 | 36 ft | 3 kts | 128° |
| 2026-04-14 14:29 | 43.44037 | 5.21971 | 37 ft | 1 kts | 134° |
| 2026-04-14 14:30 | 43.44040 | 5.21967 | 34 ft | 0 kts | 134° |
| 2026-04-14 14:31 | 43.44036 | 5.21973 | 36 ft | 3 kts | 137° |
| 2026-04-14 14:32 | 43.43996 | 5.21969 | 38 ft | 9 kts | 208° |
| 2026-04-14 14:32 | 43.43932 | 5.21900 | 38 ft | 14 kts | 224° |
| 2026-04-14 14:32 | 43.43836 | 5.21912 | 38 ft | 22 kts | 135° |
| 2026-04-14 14:32 | 43.43693 | 5.22066 | 37 ft | 28 kts | 150° |
| 2026-04-14 14:33 | 43.43521 | 5.22203 | 37 ft | 29 kts | 150° |
| 2026-04-14 14:33 | 43.43336 | 5.22326 | 37 ft | 30 kts | 140° |
| 2026-04-14 14:33 | 43.43186 | 5.22533 | 37 ft | 31 kts | 134° |
| 2026-04-14 14:33 | 43.43031 | 5.22755 | 37 ft | 31 kts | 134° |
| 2026-04-14 14:34 | 43.42819 | 5.22952 | 37 ft | 14 kts | 211° |
| 2026-04-14 14:34 | 43.42812 | 5.22942 | 36 ft | 0 kts | 225° |
| 2026-04-14 14:35 | 43.42810 | 5.22940 | 36 ft | 2 kts | 225° |
| 2026-04-14 14:35 | 43.42783 | 5.22904 | 37 ft | 9 kts | 225° |
| 2026-04-14 14:35 | 43.42758 | 5.22810 | 36 ft | 14 kts | 304° |
| 2026-04-14 14:35 | 43.42802 | 5.22743 | 35 ft | 0 kts | 315° |
| 2026-04-14 14:36 | 43.42833 | 5.22700 | 35 ft | 31 kts | 315° |
| 2026-04-14 14:36 | 43.43208 | 5.22160 | 37 ft | 120 kts | 314° |
| 2026-04-14 14:36 | 43.43866 | 5.21219 | 628 ft | 137 kts | 315° |
| 2026-04-14 14:37 | 43.44525 | 5.20288 | 1654 ft | 134 kts | 319° |
| 2026-04-14 14:37 | 43.45196 | 5.19339 | 2524 ft | 147 kts | 320° |
| 2026-04-14 14:37 | 43.45969 | 5.18253 | 3091 ft | 172 kts | 317° |
| 2026-04-14 14:37 | 43.46690 | 5.16790 | 3681 ft | 201 kts | 294° |
| 2026-04-14 14:38 | 43.46905 | 5.14796 | 4553 ft | 220 kts | 266° |
| 2026-04-14 14:38 | 43.46422 | 5.12782 | 5602 ft | 229 kts | 238° |
| 2026-04-14 14:38 | 43.45264 | 5.11254 | 6680 ft | 234 kts | 208° |
| 2026-04-14 14:38 | 43.43709 | 5.10516 | 7715 ft | 239 kts | 194° |
| 2026-04-14 14:39 | 43.42088 | 5.09929 | 8774 ft | 245 kts | 194° |
| 2026-04-14 14:39 | 43.40418 | 5.09328 | 9838 ft | 250 kts | 194° |
| 2026-04-14 14:39 | 43.38722 | 5.08716 | 10840 ft | 255 kts | 194° |
| 2026-04-14 14:39 | 43.36943 | 5.08094 | 11588 ft | 275 kts | 193° |
| 2026-04-14 14:40 | 43.35001 | 5.07451 | 12175 ft | 300 kts | 193° |
| 2026-04-14 14:40 | 43.32861 | 5.07002 | 12679 ft | 324 kts | 177° |
| 2026-04-14 14:40 | 43.30578 | 5.07599 | 13127 ft | 347 kts | 161° |
| 2026-04-14 14:40 | 43.28169 | 5.08549 | 13534 ft | 371 kts | 161° |
| 2026-04-14 14:41 | 43.25615 | 5.09582 | 13926 ft | 392 kts | 161° |
| 2026-04-14 14:41 | 43.22968 | 5.10653 | 14506 ft | 403 kts | 162° |
| 2026-04-14 14:41 | 43.20210 | 5.11758 | 15310 ft | 407 kts | 162° |
| 2026-04-14 14:41 | 43.17483 | 5.12838 | 16170 ft | 411 kts | 162° |
| 2026-04-14 14:42 | 43.14707 | 5.13936 | 16926 ft | 416 kts | 163° |
| 2026-04-14 14:42 | 43.11909 | 5.15037 | 17688 ft | 423 kts | 163° |
| 2026-04-14 14:42 | 43.09062 | 5.16153 | 18413 ft | 427 kts | 163° |
| 2026-04-14 14:42 | 43.06195 | 5.17275 | 19056 ft | 432 kts | 163° |
| 2026-04-14 14:43 | 43.03297 | 5.18412 | 19683 ft | 436 kts | 163° |
| 2026-04-14 14:43 | 43.01352 | 5.19175 | 20079 ft | 439 kts | 163° |
| 2026-04-14 14:43 | 42.98411 | 5.20330 | 20788 ft | 440 kts | 163° |
| 2026-04-14 14:43 | 42.95465 | 5.21485 | 21431 ft | 443 kts | 163° |
| 2026-04-14 14:44 | 42.92492 | 5.22648 | 22033 ft | 445 kts | 163° |
| 2026-04-14 14:44 | 42.89522 | 5.23808 | 22725 ft | 446 kts | 163° |
| 2026-04-14 14:44 | 42.86521 | 5.24981 | 23229 ft | 451 kts | 163° |
| 2026-04-14 14:44 | 42.83485 | 5.26169 | 23688 ft | 456 kts | 163° |
| 2026-04-14 14:45 | 42.80436 | 5.27360 | 24199 ft | 458 kts | 163° |
| 2026-04-14 14:45 | 42.77349 | 5.28563 | 24578 ft | 464 kts | 163° |
| 2026-04-14 14:45 | 42.74229 | 5.29778 | 25025 ft | 467 kts | 163° |
| 2026-04-14 14:45 | 42.71105 | 5.30983 | 25515 ft | 468 kts | 164° |
| 2026-04-14 14:46 | 42.67883 | 5.31808 | 25908 ft | 473 kts | 173° |
| 2026-04-14 14:46 | 42.64607 | 5.32284 | 26399 ft | 473 kts | 173° |
| 2026-04-14 14:46 | 42.61319 | 5.32769 | 26740 ft | 479 kts | 173° |
| 2026-04-14 14:46 | 42.57954 | 5.33276 | 27102 ft | 483 kts | 173° |
| 2026-04-14 14:47 | 42.54651 | 5.33782 | 27543 ft | 484 kts | 173° |
| 2026-04-14 14:47 | 42.51308 | 5.34297 | 28030 ft | 484 kts | 173° |
| 2026-04-14 14:47 | 42.47961 | 5.34805 | 28501 ft | 485 kts | 173° |
| 2026-04-14 14:47 | 42.44564 | 5.35318 | 28998 ft | 485 kts | 173° |
| 2026-04-14 14:48 | 42.41213 | 5.35822 | 29569 ft | 484 kts | 173° |
| 2026-04-14 14:48 | 42.37860 | 5.36324 | 30067 ft | 485 kts | 173° |
| 2026-04-14 14:48 | 42.34521 | 5.36824 | 30599 ft | 483 kts | 173° |
| 2026-04-14 14:48 | 42.31183 | 5.37329 | 31144 ft | 481 kts | 173° |
| 2026-04-14 14:49 | 42.27851 | 5.37831 | 31541 ft | 483 kts | 173° |
| 2026-04-14 14:49 | 42.24507 | 5.38333 | 31924 ft | 486 kts | 173° |
| 2026-04-14 14:49 | 42.21142 | 5.38839 | 32306 ft | 488 kts | 173° |
| 2026-04-14 14:49 | 42.17778 | 5.39346 | 32781 ft | 488 kts | 173° |
| 2026-04-14 14:50 | 42.14392 | 5.39649 | 33317 ft | 486 kts | 180° |
| 2026-04-14 14:50 | 42.11014 | 5.39636 | 33799 ft | 487 kts | 180° |
| 2026-04-14 14:50 | 42.07618 | 5.39633 | 34131 ft | 490 kts | 180° |
| 2026-04-14 14:50 | 42.04201 | 5.39637 | 34514 ft | 491 kts | 179° |
| 2026-04-14 14:51 | 42.00780 | 5.39643 | 34975 ft | 489 kts | 179° |
| 2026-04-14 14:51 | 41.97385 | 5.39650 | 35409 ft | 490 kts | 179° |
| 2026-04-14 14:51 | 41.93973 | 5.39652 | 35733 ft | 492 kts | 179° |
| 2026-04-14 14:51 | 41.90536 | 5.39650 | 36010 ft | 494 kts | 179° |
| 2026-04-14 14:52 | 41.87102 | 5.39649 | 36464 ft | 492 kts | 179° |
| 2026-04-14 14:52 | 41.83682 | 5.39651 | 36891 ft | 492 kts | 179° |
| 2026-04-14 14:52 | 41.80252 | 5.39656 | 36984 ft | 493 kts | 179° |
| 2026-04-14 14:53 | 41.73394 | 5.39653 | 37004 ft | 492 kts | 179° |
| 2026-04-14 14:53 | 41.66576 | 5.39647 | 37001 ft | 491 kts | 179° |
| 2026-04-14 14:54 | 41.59704 | 5.39644 | 37003 ft | 492 kts | 179° |
| 2026-04-14 14:54 | 41.52834 | 5.39642 | 37012 ft | 490 kts | 179° |
| 2026-04-14 14:55 | 41.45994 | 5.39651 | 37009 ft | 492 kts | 179° |
| 2026-04-14 14:55 | 41.39153 | 5.39659 | 37026 ft | 491 kts | 179° |
| 2026-04-14 14:56 | 41.28901 | 5.39654 | 37029 ft | 491 kts | 179° |
| 2026-04-14 14:56 | 41.22065 | 5.39658 | 37013 ft | 492 kts | 179° |
| 2026-04-14 14:57 | 41.15214 | 5.39657 | 37021 ft | 492 kts | 179° |
| 2026-04-14 14:57 | 41.08368 | 5.39669 | 37021 ft | 493 kts | 179° |
| 2026-04-14 14:58 | 41.01518 | 5.39663 | 37040 ft | 492 kts | 179° |
| 2026-04-14 14:58 | 40.94665 | 5.39663 | 37034 ft | 492 kts | 179° |
| 2026-04-14 14:59 | 40.87805 | 5.39668 | 37040 ft | 493 kts | 179° |
| 2026-04-14 14:59 | 40.80959 | 5.39666 | 37038 ft | 492 kts | 179° |
| 2026-04-14 15:00 | 40.74106 | 5.39663 | 37046 ft | 493 kts | 179° |
| 2026-04-14 15:00 | 40.67245 | 5.39668 | 37044 ft | 492 kts | 178° |
| 2026-04-14 15:01 | 40.60343 | 5.39671 | 37045 ft | 493 kts | 179° |
| 2026-04-14 15:01 | 40.53498 | 5.39664 | 37048 ft | 492 kts | 179° |
| 2026-04-14 15:02 | 40.46642 | 5.39660 | 37049 ft | 492 kts | 179° |
| 2026-04-14 15:02 | 40.39800 | 5.39660 | 37057 ft | 492 kts | 179° |
| 2026-04-14 15:03 | 40.32952 | 5.39620 | 37050 ft | 493 kts | 180° |
| 2026-04-14 15:03 | 40.26100 | 5.39490 | 37064 ft | 492 kts | 180° |
| 2026-04-14 15:04 | 40.19247 | 5.39350 | 37052 ft | 493 kts | 179° |
| 2026-04-14 15:04 | 40.12400 | 5.39233 | 37076 ft | 492 kts | 180° |
| 2026-04-14 15:05 | 40.05547 | 5.39134 | 37061 ft | 492 kts | 180° |
| 2026-04-14 15:05 | 39.98698 | 5.39033 | 37065 ft | 492 kts | 180° |
| 2026-04-14 15:06 | 39.91857 | 5.38923 | 37061 ft | 492 kts | 179° |
| 2026-04-14 15:06 | 39.85003 | 5.38807 | 37071 ft | 492 kts | 180° |
| 2026-04-14 15:07 | 39.78157 | 5.38691 | 37064 ft | 493 kts | 180° |
| 2026-04-14 15:07 | 39.71302 | 5.38584 | 37072 ft | 492 kts | 180° |
| 2026-04-14 15:08 | 39.64453 | 5.38484 | 37065 ft | 493 kts | 180° |
| 2026-04-14 15:08 | 39.57554 | 5.38375 | 37072 ft | 491 kts | 180° |
| 2026-04-14 15:09 | 39.50753 | 5.38264 | 37063 ft | 492 kts | 180° |
| 2026-04-14 15:09 | 39.43871 | 5.38155 | 37071 ft | 492 kts | 180° |
| 2026-04-14 15:10 | 39.37032 | 5.38044 | 37058 ft | 492 kts | 180° |
| 2026-04-14 15:10 | 39.30181 | 5.37937 | 37068 ft | 491 kts | 180° |
| 2026-04-14 15:11 | 39.23335 | 5.37836 | 37063 ft | 492 kts | 180° |
| 2026-04-14 15:11 | 39.16503 | 5.37726 | 37073 ft | 491 kts | 180° |
| 2026-04-14 15:12 | 39.09669 | 5.37616 | 37066 ft | 491 kts | 180° |
| 2026-04-14 15:12 | 39.02831 | 5.37508 | 37074 ft | 491 kts | 180° |
| 2026-04-14 15:13 | 38.95994 | 5.37393 | 37065 ft | 491 kts | 181° |
| 2026-04-14 15:13 | 38.89157 | 5.37254 | 37078 ft | 491 kts | 181° |
| 2026-04-14 15:14 | 38.82328 | 5.37112 | 37072 ft | 491 kts | 181° |
| 2026-04-14 15:14 | 38.75488 | 5.36969 | 37083 ft | 491 kts | 181° |
| 2026-04-14 15:15 | 38.68668 | 5.36820 | 37081 ft | 490 kts | 181° |
| 2026-04-14 15:15 | 38.61846 | 5.36689 | 37091 ft | 490 kts | 181° |
| 2026-04-14 15:16 | 38.55020 | 5.36565 | 37082 ft | 490 kts | 181° |
| 2026-04-14 15:16 | 38.49300 | 5.36449 | 37097 ft | 490 kts | 181° |
| 2026-04-14 15:17 | 38.42484 | 5.36310 | 37090 ft | 490 kts | 181° |
| 2026-04-14 15:17 | 38.35668 | 5.36174 | 37100 ft | 489 kts | 181° |
| 2026-04-14 15:18 | 38.28861 | 5.36028 | 37093 ft | 489 kts | 181° |
| 2026-04-14 15:18 | 38.22046 | 5.35888 | 37097 ft | 489 kts | 181° |
| 2026-04-14 15:19 | 38.15246 | 5.35758 | 37087 ft | 489 kts | 181° |
| 2026-04-14 15:19 | 38.08451 | 5.35634 | 37092 ft | 489 kts | 181° |
| 2026-04-14 15:20 | 38.05049 | 5.35563 | 36900 ft | 488 kts | 181° |
| 2026-04-14 15:20 | 38.01654 | 5.35487 | 36648 ft | 488 kts | 181° |
| 2026-04-14 15:20 | 37.98262 | 5.35414 | 36398 ft | 487 kts | 181° |
| 2026-04-14 15:20 | 37.94873 | 5.35346 | 36155 ft | 486 kts | 181° |
| 2026-04-14 15:21 | 37.91492 | 5.35278 | 35448 ft | 488 kts | 181° |
| 2026-04-14 15:21 | 37.88055 | 5.35212 | 34382 ft | 494 kts | 181° |
| 2026-04-14 15:21 | 37.84628 | 5.35148 | 33471 ft | 492 kts | 181° |
| 2026-04-14 15:21 | 37.81208 | 5.35083 | 32361 ft | 493 kts | 180° |
| 2026-04-14 15:22 | 37.77771 | 5.35015 | 31235 ft | 494 kts | 180° |
| 2026-04-14 15:22 | 37.74337 | 5.34944 | 30103 ft | 494 kts | 180° |
| 2026-04-14 15:22 | 37.70901 | 5.34874 | 28714 ft | 494 kts | 180° |
| 2026-04-14 15:22 | 37.67413 | 5.34806 | 27213 ft | 495 kts | 180° |
| 2026-04-14 15:23 | 37.63961 | 5.34741 | 25644 ft | 498 kts | 180° |
| 2026-04-14 15:23 | 37.60493 | 5.34677 | 24060 ft | 502 kts | 181° |
| 2026-04-14 15:23 | 37.57046 | 5.34613 | 22661 ft | 486 kts | 181° |
| 2026-04-14 15:23 | 37.53708 | 5.34551 | 21003 ft | 472 kts | 181° |
| 2026-04-14 15:24 | 37.50463 | 5.34487 | 19405 ft | 460 kts | 181° |
| 2026-04-14 15:24 | 37.47303 | 5.34423 | 17878 ft | 449 kts | 181° |
| 2026-04-14 15:24 | 37.44211 | 5.34362 | 16394 ft | 437 kts | 181° |
| 2026-04-14 15:24 | 37.41221 | 5.34305 | 15498 ft | 427 kts | 181° |
| 2026-04-14 15:25 | 37.38261 | 5.34249 | 14589 ft | 423 kts | 182° |
| 2026-04-14 15:25 | 37.35331 | 5.34190 | 13681 ft | 420 kts | 181° |
| 2026-04-14 15:25 | 37.32416 | 5.34131 | 12787 ft | 416 kts | 182° |
| 2026-04-14 15:25 | 37.29542 | 5.34073 | 11937 ft | 410 kts | 182° |
| 2026-04-14 15:26 | 37.26706 | 5.34017 | 11279 ft | 400 kts | 182° |
| 2026-04-14 15:26 | 37.24020 | 5.33967 | 11143 ft | 375 kts | 182° |
| 2026-04-14 15:26 | 37.21491 | 5.33921 | 11018 ft | 352 kts | 182° |
| 2026-04-14 15:26 | 37.19105 | 5.33878 | 10900 ft | 333 kts | 183° |
| 2026-04-14 15:27 | 37.16839 | 5.33840 | 10775 ft | 318 kts | 184° |
| 2026-04-14 15:27 | 37.14681 | 5.33802 | 10580 ft | 305 kts | 184° |
| 2026-04-14 15:27 | 37.12583 | 5.33761 | 10340 ft | 299 kts | 184° |
| 2026-04-14 15:27 | 37.10506 | 5.33716 | 10100 ft | 298 kts | 183° |
| 2026-04-14 15:28 | 37.08442 | 5.33668 | 9949 ft | 297 kts | 184° |
| 2026-04-14 15:28 | 37.06413 | 5.33626 | 9811 ft | 282 kts | 183° |
| 2026-04-14 15:28 | 37.04514 | 5.33592 | 9676 ft | 265 kts | 184° |
| 2026-04-14 15:28 | 37.02719 | 5.33564 | 9542 ft | 250 kts | 183° |
| 2026-04-14 15:29 | 37.01008 | 5.33539 | 9189 ft | 246 kts | 184° |
| 2026-04-14 15:29 | 36.99283 | 5.33506 | 8639 ft | 249 kts | 183° |
| 2026-04-14 15:29 | 36.97538 | 5.33469 | 8088 ft | 253 kts | 184° |
| 2026-04-14 15:29 | 36.95768 | 5.33427 | 7529 ft | 256 kts | 183° |
| 2026-04-14 15:30 | 36.93949 | 5.33386 | 6936 ft | 260 kts | 182° |
| 2026-04-14 15:30 | 36.92119 | 5.33348 | 6276 ft | 266 kts | 182° |
| 2026-04-14 15:30 | 36.90285 | 5.33312 | 5658 ft | 268 kts | 182° |
| 2026-04-14 15:30 | 36.88388 | 5.33277 | 5052 ft | 269 kts | 181° |
| 2026-04-14 15:31 | 36.86531 | 5.33242 | 4543 ft | 262 kts | 182° |
| 2026-04-14 15:31 | 36.84797 | 5.33211 | 4471 ft | 237 kts | 181° |
| 2026-04-14 15:31 | 36.83225 | 5.33183 | 4414 ft | 215 kts | 181° |
| 2026-04-14 15:31 | 36.81774 | 5.33157 | 4365 ft | 206 kts | 181° |
| 2026-04-14 15:32 | 36.80347 | 5.33132 | 4321 ft | 204 kts | 181° |
| 2026-04-14 15:32 | 36.78928 | 5.33106 | 4254 ft | 204 kts | 181° |
| 2026-04-14 15:32 | 36.77505 | 5.33078 | 4167 ft | 204 kts | 181° |
| 2026-04-14 15:32 | 36.76086 | 5.33052 | 4081 ft | 204 kts | 182° |
| 2026-04-14 15:33 | 36.74743 | 5.32626 | 4004 ft | 196 kts | 223° |
| 2026-04-14 15:33 | 36.74037 | 5.31305 | 4141 ft | 187 kts | 257° |
| 2026-04-14 15:33 | 36.73808 | 5.29674 | 3640 ft | 199 kts | 265° |
| 2026-04-14 15:33 | 36.73609 | 5.27920 | 3183 ft | 208 kts | 264° |
| 2026-04-14 15:34 | 36.73407 | 5.26145 | 2998 ft | 202 kts | 264° |
| 2026-04-14 15:34 | 36.73209 | 5.24421 | 2682 ft | 204 kts | 264° |
| 2026-04-14 15:34 | 36.73007 | 5.22658 | 2343 ft | 206 kts | 265° |
| 2026-04-14 15:34 | 36.72806 | 5.20920 | 2054 ft | 197 kts | 264° |
| 2026-04-14 15:35 | 36.72618 | 5.19288 | 1800 ft | 184 kts | 264° |
| 2026-04-14 15:35 | 36.72443 | 5.17765 | 1541 ft | 168 kts | 265° |
| 2026-04-14 15:35 | 36.72288 | 5.16442 | 1321 ft | 142 kts | 264° |
| 2026-04-14 15:35 | 36.72157 | 5.15304 | 1139 ft | 126 kts | 265° |
| 2026-04-14 15:36 | 36.72036 | 5.14240 | 972 ft | 122 kts | 266° |
| 2026-04-14 15:36 | 36.71915 | 5.13191 | 814 ft | 121 kts | 266° |
| 2026-04-14 15:36 | 36.71796 | 5.12159 | 661 ft | 120 kts | 266° |
| 2026-04-14 15:36 | 36.71679 | 5.11133 | 506 ft | 120 kts | 266° |
| 2026-04-14 15:37 | 36.71559 | 5.10107 | 338 ft | 120 kts | 266° |
| 2026-04-14 15:37 | 36.71440 | 5.09081 | 167 ft | 118 kts | 265° |
| 2026-04-14 15:37 | 36.71320 | 5.08071 | 39 ft | 117 kts | 265° |
| 2026-04-14 15:37 | 36.71221 | 5.07169 | 20 ft | 79 kts | 262° |
| 2026-04-14 15:38 | 36.71167 | 5.06833 | 21 ft | 18 kts | 258° |
| 2026-04-14 15:38 | 36.71180 | 5.06834 | 23 ft | 7 kts | 77° |
| 2026-04-14 15:38 | 36.71209 | 5.06927 | 21 ft | 17 kts | 39° |
| 2026-04-14 15:38 | 36.71321 | 5.06928 | 22 ft | 16 kts | 3° |
| 2026-04-14 15:39 | 36.71373 | 5.07048 | 22 ft | 18 kts | 82° |
| 2026-04-14 15:39 | 36.71403 | 5.07205 | 22 ft | 17 kts | 40° |
| 2026-04-14 15:39 | 36.71428 | 5.07183 | 22 ft | 4 kts | 221° |
| 2026-04-14 15:39 | 36.71423 | 5.07178 | 22 ft | 0 kts | 221° |
| 2026-04-14 15:57 | 36.71424 | 5.07178 | 22 ft | 0 kts | 221° |
| 2026-04-14 16:12 | 36.71406 | 5.07158 | 23 ft | 7 kts | 224° |
| 2026-04-14 16:12 | 36.71379 | 5.07075 | 24 ft | 14 kts | 258° |
| 2026-04-14 16:12 | 36.71342 | 5.06938 | 22 ft | 18 kts | 217° |
| 2026-04-14 16:13 | 36.71213 | 5.06927 | 20 ft | 20 kts | 210° |
| 2026-04-14 16:13 | 36.71168 | 5.06733 | 21 ft | 29 kts | 263° |
| 2026-04-14 16:13 | 36.71137 | 5.06460 | 24 ft | 33 kts | 261° |
| 2026-04-14 16:13 | 36.71103 | 5.06166 | 27 ft | 35 kts | 262° |
| 2026-04-14 16:14 | 36.71070 | 5.05861 | 28 ft | 36 kts | 262° |
| 2026-04-14 16:14 | 36.71056 | 5.05678 | 25 ft | 12 kts | 180° |
| 2026-04-14 16:14 | 36.71054 | 5.05754 | 26 ft | 11 kts | 77° |
| 2026-04-14 16:14 | 36.71062 | 5.05822 | 29 ft | 0 kts | 82° |
| 2026-04-14 16:15 | 36.71063 | 5.05829 | 25 ft | 4 kts | 82° |
| 2026-04-14 16:15 | 36.71111 | 5.06242 | 26 ft | 96 kts | 81° |
| 2026-04-14 16:15 | 36.71240 | 5.07376 | 175 ft | 154 kts | 82° |
| 2026-04-14 16:15 | 36.71392 | 5.08725 | 994 ft | 157 kts | 80° |
| 2026-04-14 16:16 | 36.71556 | 5.10061 | 1959 ft | 156 kts | 77° |
| 2026-04-14 16:16 | 36.72165 | 5.11219 | 2573 ft | 175 kts | 34° |
| 2026-04-14 16:16 | 36.73337 | 5.11634 | 3483 ft | 177 kts | 4° |
| 2026-04-14 16:16 | 36.74582 | 5.11736 | 4355 ft | 181 kts | 3° |
| 2026-04-14 16:17 | 36.75879 | 5.11863 | 5045 ft | 198 kts | 3° |
| 2026-04-14 16:17 | 36.77342 | 5.12013 | 5678 ft | 223 kts | 3° |
| 2026-04-14 16:17 | 36.78978 | 5.12182 | 6401 ft | 248 kts | 2° |
| 2026-04-14 16:17 | 36.80748 | 5.12366 | 7333 ft | 261 kts | 2° |
| 2026-04-14 16:18 | 36.82583 | 5.12564 | 8496 ft | 267 kts | 2° |
| 2026-04-14 16:18 | 36.84451 | 5.12771 | 9657 ft | 273 kts | 1° |
| 2026-04-14 16:18 | 36.86373 | 5.12985 | 10597 ft | 286 kts | 2° |
| 2026-04-14 16:18 | 36.88448 | 5.13213 | 11147 ft | 311 kts | 2° |
| 2026-04-14 16:19 | 36.90686 | 5.13460 | 11633 ft | 335 kts | 3° |
| 2026-04-14 16:19 | 36.93093 | 5.13728 | 12042 ft | 359 kts | 3° |
| 2026-04-14 16:19 | 36.95628 | 5.14014 | 12753 ft | 370 kts | 4° |
| 2026-04-14 16:19 | 36.98212 | 5.14309 | 13611 ft | 377 kts | 4° |
| 2026-04-14 16:20 | 37.00847 | 5.14610 | 14412 ft | 383 kts | 4° |
| 2026-04-14 16:20 | 37.03517 | 5.14912 | 15240 ft | 387 kts | 4° |
| 2026-04-14 16:20 | 37.06213 | 5.15214 | 16079 ft | 390 kts | 4° |
| 2026-04-14 16:20 | 37.08886 | 5.15514 | 16894 ft | 394 kts | 4° |
| 2026-04-14 16:21 | 37.11631 | 5.15823 | 17727 ft | 397 kts | 4° |
| 2026-04-14 16:21 | 37.14395 | 5.16132 | 18492 ft | 401 kts | 5° |
| 2026-04-14 16:21 | 37.17200 | 5.16444 | 19141 ft | 405 kts | 5° |
| 2026-04-14 16:21 | 37.20015 | 5.16757 | 19804 ft | 408 kts | 5° |
| 2026-04-14 16:22 | 37.22862 | 5.17075 | 20462 ft | 411 kts | 5° |
| 2026-04-14 16:22 | 37.24792 | 5.17292 | 20898 ft | 413 kts | 5° |
| 2026-04-14 16:22 | 37.27665 | 5.17616 | 21531 ft | 415 kts | 5° |
| 2026-04-14 16:22 | 37.30555 | 5.17940 | 22146 ft | 418 kts | 5° |
| 2026-04-14 16:23 | 37.33464 | 5.18267 | 22745 ft | 421 kts | 5° |
| 2026-04-14 16:23 | 37.36352 | 5.18590 | 23328 ft | 424 kts | 5° |
| 2026-04-14 16:23 | 37.39302 | 5.18924 | 23854 ft | 427 kts | 6° |
| 2026-04-14 16:23 | 37.42272 | 5.19267 | 24335 ft | 429 kts | 6° |
| 2026-04-14 16:24 | 37.45258 | 5.19616 | 24819 ft | 431 kts | 6° |
| 2026-04-14 16:24 | 37.48245 | 5.19962 | 25291 ft | 433 kts | 6° |
| 2026-04-14 16:24 | 37.51258 | 5.20304 | 25735 ft | 435 kts | 6° |
| 2026-04-14 16:24 | 37.54292 | 5.20644 | 26202 ft | 437 kts | 6° |
| 2026-04-14 16:25 | 37.57334 | 5.20983 | 26645 ft | 440 kts | 6° |
| 2026-04-14 16:25 | 37.60380 | 5.21327 | 27073 ft | 442 kts | 6° |
| 2026-04-14 16:25 | 37.63447 | 5.21675 | 27513 ft | 443 kts | 6° |
| 2026-04-14 16:25 | 37.66532 | 5.22030 | 27941 ft | 445 kts | 6° |
| 2026-04-14 16:26 | 37.69627 | 5.22386 | 28348 ft | 447 kts | 6° |
| 2026-04-14 16:26 | 37.72742 | 5.22738 | 28818 ft | 447 kts | 6° |
| 2026-04-14 16:26 | 37.75829 | 5.23084 | 29428 ft | 445 kts | 6° |
| 2026-04-14 16:26 | 37.78909 | 5.23430 | 30060 ft | 442 kts | 6° |
| 2026-04-14 16:27 | 37.81974 | 5.23776 | 30607 ft | 440 kts | 6° |
| 2026-04-14 16:27 | 37.85012 | 5.24121 | 31142 ft | 437 kts | 6° |
| 2026-04-14 16:27 | 37.88035 | 5.24466 | 31731 ft | 434 kts | 6° |
| 2026-04-14 16:27 | 37.91028 | 5.24812 | 32300 ft | 431 kts | 6° |
| 2026-04-14 16:28 | 37.94009 | 5.25158 | 32863 ft | 428 kts | 6° |
| 2026-04-14 16:28 | 37.96972 | 5.25497 | 33423 ft | 426 kts | 6° |
| 2026-04-14 16:28 | 37.99922 | 5.25835 | 33984 ft | 424 kts | 6° |
| 2026-04-14 16:28 | 38.02849 | 5.26168 | 34452 ft | 422 kts | 5° |
| 2026-04-14 16:29 | 38.05780 | 5.26501 | 34846 ft | 423 kts | 5° |
| 2026-04-14 16:29 | 38.08714 | 5.26840 | 35196 ft | 424 kts | 5° |
| 2026-04-14 16:29 | 38.11650 | 5.27181 | 35533 ft | 425 kts | 5° |
| 2026-04-14 16:29 | 38.14599 | 5.27523 | 35866 ft | 426 kts | 5° |
| 2026-04-14 16:30 | 38.17572 | 5.27869 | 36054 ft | 428 kts | 5° |
| 2026-04-14 16:30 | 38.23508 | 5.28552 | 36090 ft | 428 kts | 5° |
| 2026-04-14 16:31 | 38.29461 | 5.29244 | 36090 ft | 429 kts | 5° |
| 2026-04-14 16:31 | 38.35405 | 5.29931 | 36090 ft | 429 kts | 5° |
| 2026-04-14 16:32 | 38.41343 | 5.30611 | 36087 ft | 429 kts | 5° |
| 2026-04-14 16:32 | 38.47268 | 5.31280 | 36089 ft | 429 kts | 5° |
| 2026-04-14 16:33 | 38.53230 | 5.31970 | 36098 ft | 429 kts | 5° |
| 2026-04-14 16:33 | 38.59184 | 5.32678 | 36087 ft | 430 kts | 5° |
| 2026-04-14 16:34 | 38.65142 | 5.33391 | 36096 ft | 430 kts | 5° |
| 2026-04-14 16:34 | 38.71117 | 5.34085 | 36084 ft | 431 kts | 5° |
| 2026-04-14 16:35 | 38.77097 | 5.34782 | 36077 ft | 432 kts | 5° |
| 2026-04-14 16:35 | 38.83083 | 5.35481 | 36081 ft | 432 kts | 5° |
| 2026-04-14 16:36 | 38.89073 | 5.36187 | 36087 ft | 432 kts | 5° |
| 2026-04-14 16:36 | 38.95063 | 5.36890 | 36083 ft | 432 kts | 5° |
| 2026-04-14 16:37 | 39.01058 | 5.37555 | 36074 ft | 432 kts | 4° |
| 2026-04-14 16:37 | 39.07071 | 5.37776 | 36074 ft | 432 kts | 0° |
| 2026-04-14 16:38 | 39.13070 | 5.37734 | 36071 ft | 431 kts | 0° |
| 2026-04-14 16:38 | 39.19049 | 5.37739 | 36071 ft | 431 kts | 1° |
| 2026-04-14 16:39 | 39.25061 | 5.37834 | 36070 ft | 432 kts | 1° |
| 2026-04-14 16:39 | 39.31080 | 5.37955 | 36065 ft | 432 kts | 1° |
| 2026-04-14 16:40 | 39.37092 | 5.38057 | 36070 ft | 432 kts | 1° |
| 2026-04-14 16:40 | 39.43105 | 5.38148 | 36073 ft | 432 kts | 1° |
| 2026-04-14 16:41 | 39.49126 | 5.38243 | 36062 ft | 432 kts | 1° |
| 2026-04-14 16:41 | 39.55152 | 5.38333 | 36064 ft | 432 kts | 1° |
| 2026-04-14 16:42 | 39.61168 | 5.38423 | 36065 ft | 432 kts | 1° |
| 2026-04-14 16:42 | 39.67186 | 5.38525 | 36060 ft | 432 kts | 1° |
| 2026-04-14 16:43 | 39.73204 | 5.38621 | 36056 ft | 432 kts | 1° |
| 2026-04-14 16:43 | 39.79215 | 5.38717 | 36058 ft | 432 kts | 1° |
| 2026-04-14 16:44 | 39.85226 | 5.38812 | 36053 ft | 432 kts | 1° |
| 2026-04-14 16:44 | 39.91229 | 5.38899 | 36044 ft | 431 kts | 1° |
| 2026-04-14 16:45 | 40.00239 | 5.39049 | 36049 ft | 431 kts | 1° |
| 2026-04-14 16:45 | 40.06246 | 5.39151 | 36052 ft | 431 kts | 1° |
| 2026-04-14 16:46 | 40.12236 | 5.39243 | 36047 ft | 431 kts | 1° |
| 2026-04-14 16:46 | 40.18251 | 5.39330 | 36043 ft | 431 kts | 1° |
| 2026-04-14 16:47 | 40.24239 | 5.39433 | 36047 ft | 431 kts | 1° |
| 2026-04-14 16:47 | 40.30240 | 5.39536 | 36044 ft | 431 kts | 1° |
| 2026-04-14 16:48 | 40.36196 | 5.39630 | 36034 ft | 431 kts | 1° |
| 2026-04-14 16:48 | 40.42236 | 5.39687 | 36037 ft | 431 kts | 360° |
| 2026-04-14 16:49 | 40.48223 | 5.39593 | 36039 ft | 431 kts | 359° |
| 2026-04-14 16:49 | 40.54190 | 5.39475 | 36038 ft | 431 kts | 359° |
| 2026-04-14 16:50 | 40.60188 | 5.39386 | 36035 ft | 431 kts | 359° |
| 2026-04-14 16:50 | 40.66185 | 5.39308 | 36033 ft | 431 kts | 360° |
| 2026-04-14 16:51 | 40.72173 | 5.39236 | 36035 ft | 430 kts | 360° |
| 2026-04-14 16:51 | 40.78169 | 5.39164 | 36036 ft | 430 kts | 360° |
| 2026-04-14 16:52 | 40.84150 | 5.39092 | 36011 ft | 430 kts | 360° |
| 2026-04-14 16:52 | 40.90135 | 5.39017 | 36013 ft | 430 kts | 360° |
| 2026-04-14 16:53 | 40.96127 | 5.38941 | 36016 ft | 429 kts | 360° |
| 2026-04-14 16:53 | 41.02096 | 5.38856 | 36011 ft | 429 kts | 360° |
| 2026-04-14 16:54 | 41.08073 | 5.38816 | 36020 ft | 429 kts | 0° |
| 2026-04-14 16:54 | 41.14046 | 5.38798 | 36021 ft | 429 kts | 0° |
| 2026-04-14 16:55 | 41.19017 | 5.38782 | 36022 ft | 429 kts | 0° |
| 2026-04-14 16:55 | 41.24988 | 5.38752 | 36013 ft | 429 kts | 0° |
| 2026-04-14 16:56 | 41.30945 | 5.38718 | 36023 ft | 429 kts | 0° |
| 2026-04-14 16:56 | 41.36926 | 5.38678 | 36025 ft | 429 kts | 0° |
| 2026-04-14 16:57 | 41.42887 | 5.38641 | 36019 ft | 428 kts | 0° |
| 2026-04-14 16:57 | 41.48853 | 5.38608 | 36017 ft | 428 kts | 0° |
| 2026-04-14 16:58 | 41.54813 | 5.38578 | 36019 ft | 428 kts | 0° |
| 2026-04-14 16:58 | 41.60773 | 5.38538 | 36020 ft | 428 kts | 0° |
| 2026-04-14 16:59 | 41.66737 | 5.38509 | 36016 ft | 428 kts | 0° |
| 2026-04-14 16:59 | 41.72701 | 5.38580 | 36019 ft | 428 kts | 1° |
| 2026-04-14 17:00 | 41.78653 | 5.38759 | 36019 ft | 428 kts | 2° |
| 2026-04-14 17:00 | 41.84609 | 5.38939 | 36018 ft | 427 kts | 1° |
| 2026-04-14 17:01 | 41.90557 | 5.39083 | 36018 ft | 427 kts | 1° |
| 2026-04-14 17:01 | 41.96501 | 5.39215 | 36020 ft | 427 kts | 1° |
| 2026-04-14 17:02 | 42.02442 | 5.39352 | 35355 ft | 426 kts | 1° |
| 2026-04-14 17:02 | 42.05416 | 5.39424 | 34404 ft | 428 kts | 1° |
| 2026-04-14 17:02 | 42.08398 | 5.39494 | 33403 ft | 429 kts | 1° |
| 2026-04-14 17:03 | 42.11386 | 5.39559 | 32202 ft | 432 kts | 1° |
| 2026-04-14 17:03 | 42.14415 | 5.39623 | 30898 ft | 438 kts | 1° |
| 2026-04-14 17:03 | 42.17472 | 5.39390 | 29670 ft | 442 kts | 353° |
| 2026-04-14 17:03 | 42.20506 | 5.38908 | 28854 ft | 434 kts | 354° |
| 2026-04-14 17:04 | 42.23477 | 5.38460 | 28080 ft | 426 kts | 354° |
| 2026-04-14 17:04 | 42.26398 | 5.38031 | 27312 ft | 418 kts | 354° |
| 2026-04-14 17:04 | 42.29263 | 5.37611 | 26561 ft | 412 kts | 354° |
| 2026-04-14 17:04 | 42.32094 | 5.37191 | 25832 ft | 406 kts | 354° |
| 2026-04-14 17:05 | 42.34883 | 5.36776 | 25103 ft | 400 kts | 354° |
| 2026-04-14 17:05 | 42.37641 | 5.36362 | 24400 ft | 396 kts | 354° |
| 2026-04-14 17:05 | 42.40362 | 5.35948 | 23721 ft | 392 kts | 354° |
| 2026-04-14 17:05 | 42.43058 | 5.35536 | 22989 ft | 388 kts | 355° |
| 2026-04-14 17:06 | 42.45720 | 5.35130 | 22393 ft | 381 kts | 354° |
| 2026-04-14 17:06 | 42.48310 | 5.34737 | 21816 ft | 377 kts | 354° |
| 2026-04-14 17:06 | 42.50935 | 5.34342 | 21265 ft | 372 kts | 355° |
| 2026-04-14 17:06 | 42.53491 | 5.33959 | 20736 ft | 367 kts | 355° |
| 2026-04-14 17:07 | 42.55987 | 5.33587 | 20191 ft | 363 kts | 355° |
| 2026-04-14 17:07 | 42.58524 | 5.33206 | 19633 ft | 360 kts | 355° |
| 2026-04-14 17:07 | 42.60963 | 5.32838 | 19084 ft | 356 kts | 354° |
| 2026-04-14 17:07 | 42.63444 | 5.32465 | 18518 ft | 353 kts | 354° |
| 2026-04-14 17:08 | 42.65874 | 5.32101 | 17904 ft | 350 kts | 355° |
| 2026-04-14 17:08 | 42.68275 | 5.31661 | 17308 ft | 347 kts | 350° |
| 2026-04-14 17:08 | 42.70573 | 5.30698 | 16731 ft | 347 kts | 340° |
| 2026-04-14 17:08 | 42.72695 | 5.29192 | 16118 ft | 349 kts | 331° |
| 2026-04-14 17:09 | 42.74786 | 5.27510 | 15493 ft | 350 kts | 331° |
| 2026-04-14 17:09 | 42.76880 | 5.25836 | 14878 ft | 347 kts | 332° |
| 2026-04-14 17:09 | 42.78953 | 5.24185 | 14268 ft | 345 kts | 333° |
| 2026-04-14 17:09 | 42.81021 | 5.22537 | 13645 ft | 342 kts | 333° |
| 2026-04-14 17:10 | 42.83067 | 5.20903 | 13006 ft | 338 kts | 332° |
| 2026-04-14 17:10 | 42.85083 | 5.19295 | 12415 ft | 334 kts | 331° |
| 2026-04-14 17:10 | 42.87090 | 5.17692 | 11837 ft | 332 kts | 332° |
| 2026-04-14 17:10 | 42.89076 | 5.16101 | 11242 ft | 330 kts | 332° |
| 2026-04-14 17:11 | 42.91056 | 5.14540 | 10658 ft | 328 kts | 334° |
| 2026-04-14 17:11 | 42.93173 | 5.13580 | 10340 ft | 314 kts | 351° |
| 2026-04-14 17:11 | 42.95296 | 5.13467 | 10216 ft | 296 kts | 6° |
| 2026-04-14 17:11 | 42.97254 | 5.14080 | 10025 ft | 285 kts | 20° |
| 2026-04-14 17:12 | 42.99005 | 5.15265 | 9862 ft | 278 kts | 28° |
| 2026-04-14 17:12 | 43.00702 | 5.16525 | 9730 ft | 277 kts | 27° |
| 2026-04-14 17:12 | 43.02397 | 5.17781 | 9554 ft | 279 kts | 27° |
| 2026-04-14 17:12 | 43.04111 | 5.19049 | 9049 ft | 279 kts | 27° |
| 2026-04-14 17:13 | 43.05810 | 5.20304 | 8516 ft | 280 kts | 27° |
| 2026-04-14 17:13 | 43.07526 | 5.21567 | 7925 ft | 276 kts | 26° |
| 2026-04-14 17:13 | 43.09183 | 5.22786 | 7392 ft | 266 kts | 26° |
| 2026-04-14 17:13 | 43.10792 | 5.23974 | 6888 ft | 258 kts | 26° |
| 2026-04-14 17:14 | 43.12349 | 5.25129 | 6382 ft | 251 kts | 27° |
| 2026-04-14 17:14 | 43.13864 | 5.26257 | 5883 ft | 245 kts | 26° |
| 2026-04-14 17:14 | 43.15347 | 5.27357 | 5562 ft | 235 kts | 26° |
| 2026-04-14 17:14 | 43.16726 | 5.28382 | 5508 ft | 215 kts | 27° |
| 2026-04-14 17:15 | 43.17993 | 5.29325 | 5450 ft | 201 kts | 27° |
| 2026-04-14 17:15 | 43.19190 | 5.30215 | 5328 ft | 193 kts | 26° |
| 2026-04-14 17:15 | 43.20372 | 5.31092 | 5037 ft | 194 kts | 25° |
| 2026-04-14 17:15 | 43.21555 | 5.31970 | 4755 ft | 194 kts | 27° |
| 2026-04-14 17:16 | 43.22773 | 5.32733 | 4484 ft | 191 kts | 13° |
| 2026-04-14 17:16 | 43.24056 | 5.32976 | 4295 ft | 182 kts | 358° |
| 2026-04-14 17:16 | 43.25318 | 5.32938 | 4022 ft | 182 kts | 358° |
| 2026-04-14 17:16 | 43.26570 | 5.32908 | 3768 ft | 180 kts | 358° |
| 2026-04-14 17:17 | 43.27821 | 5.32881 | 3558 ft | 177 kts | 357° |
| 2026-04-14 17:17 | 43.29038 | 5.32852 | 3364 ft | 174 kts | 357° |
| 2026-04-14 17:17 | 43.30225 | 5.32823 | 3176 ft | 169 kts | 357° |
| 2026-04-14 17:17 | 43.31402 | 5.32795 | 2896 ft | 170 kts | 359° |
| 2026-04-14 17:18 | 43.32584 | 5.32766 | 2654 ft | 170 kts | 359° |
| 2026-04-14 17:18 | 43.33782 | 5.32739 | 2372 ft | 172 kts | 358° |
| 2026-04-14 17:18 | 43.34963 | 5.32691 | 2224 ft | 164 kts | 353° |
| 2026-04-14 17:18 | 43.35986 | 5.32213 | 2144 ft | 149 kts | 332° |
| 2026-04-14 17:19 | 43.36750 | 5.31322 | 2074 ft | 147 kts | 320° |
| 2026-04-14 17:19 | 43.37463 | 5.30314 | 2018 ft | 147 kts | 320° |
| 2026-04-14 17:19 | 43.38151 | 5.29336 | 1890 ft | 134 kts | 320° |
| 2026-04-14 17:19 | 43.38781 | 5.28442 | 1715 ft | 123 kts | 321° |
| 2026-04-14 17:20 | 43.39354 | 5.27627 | 1508 ft | 114 kts | 321° |
| 2026-04-14 17:20 | 43.39887 | 5.26872 | 1315 ft | 107 kts | 321° |
| 2026-04-14 17:20 | 43.40400 | 5.26146 | 1130 ft | 105 kts | 321° |
| 2026-04-14 17:20 | 43.40909 | 5.25423 | 952 ft | 106 kts | 316° |
| 2026-04-14 17:21 | 43.41420 | 5.24685 | 811 ft | 109 kts | 317° |
| 2026-04-14 17:21 | 43.41945 | 5.23939 | 578 ft | 106 kts | 319° |
| 2026-04-14 17:21 | 43.42459 | 5.23217 | 379 ft | 103 kts | 316° |
| 2026-04-14 17:21 | 43.42960 | 5.22505 | 145 ft | 104 kts | 318° |
| 2026-04-14 17:22 | 43.43460 | 5.21799 | 47 ft | 100 kts | 316° |
| 2026-04-14 17:22 | 43.43859 | 5.21246 | 37 ft | 48 kts | 314° |
| 2026-04-14 17:22 | 43.44048 | 5.21102 | 37 ft | 25 kts | 347° |
| 2026-04-14 17:22 | 43.44144 | 5.21162 | 36 ft | 18 kts | 113° |
| 2026-04-14 17:23 | 43.44050 | 5.21305 | 37 ft | 24 kts | 133° |
| 2026-04-14 17:23 | 43.43926 | 5.21494 | 38 ft | 29 kts | 111° |
| 2026-04-14 17:23 | 43.44038 | 5.21711 | 38 ft | 26 kts | 41° |
| 2026-04-14 17:23 | 43.44094 | 5.21890 | 37 ft | 24 kts | 124° |
| 2026-04-14 17:24 | 43.44023 | 5.22027 | 38 ft | 2 kts | 52° |
| 2026-04-14 17:24 | 43.44047 | 5.22070 | 38 ft | 7 kts | 51° |
| 2026-04-14 17:24 | 43.44060 | 5.22091 | 38 ft | 0 kts | 49° |